createdAt,value
2022-11-14T00:01:15.880Z,6.80
2022-11-14T00:04:03.950Z,6.60
2022-11-14T00:06:51.931Z,6.60
2022-11-14T00:09:42.848Z,6.60
2022-11-14T00:12:30.853Z,6.60
2022-11-14T00:15:20.529Z,6.40
2022-11-14T00:18:08.645Z,6.40
2022-11-14T00:20:56.675Z,6.40
2022-11-14T00:23:44.611Z,6.30
2022-11-14T00:26:34.791Z,6.50
2022-11-14T00:29:22.814Z,6.60
2022-11-14T00:32:12.066Z,6.70
2022-11-14T00:34:59.924Z,6.60
2022-11-14T00:37:47.847Z,6.60
2022-11-14T00:40:35.750Z,6.60
2022-11-14T00:43:23.724Z,6.60
2022-11-14T00:46:11.604Z,6.70
2022-11-14T00:49:00.938Z,6.60
2022-11-14T00:51:48.782Z,6.60
2022-11-14T00:54:36.646Z,6.50
2022-11-14T00:57:24.561Z,6.50
2022-11-14T01:00:14.457Z,6.50
2022-11-14T01:03:02.754Z,6.50
2022-11-14T01:05:52.616Z,6.50
2022-11-14T01:08:40.494Z,6.40
2022-11-14T01:11:28.311Z,6.20
2022-11-14T01:14:16.200Z,6.10
2022-11-14T01:17:04.608Z,5.90
2022-11-14T01:19:52.493Z,5.90
2022-11-14T01:22:41.691Z,5.90
2022-11-14T01:25:29.710Z,5.70
2022-11-14T01:28:18.725Z,5.50
2022-11-14T01:31:10.757Z,5.40
2022-11-14T01:33:58.637Z,5.50
2022-11-14T01:36:46.545Z,5.80
2022-11-14T01:39:35.866Z,5.80
2022-11-14T01:42:27.265Z,5.80
2022-11-14T01:45:36.661Z,5.80
2022-11-14T01:48:26.796Z,5.80
2022-11-14T01:51:18.402Z,5.80
2022-11-14T01:54:08.398Z,5.80
2022-11-14T01:56:59.076Z,5.80
2022-11-14T01:59:48.849Z,5.60
2022-11-14T02:02:36.939Z,5.60
2022-11-14T02:05:24.874Z,5.70
2022-11-14T02:08:15.449Z,5.70
2022-11-14T02:11:03.466Z,5.60
2022-11-14T02:13:52.923Z,5.50
2022-11-14T02:16:51.594Z,5.30
2022-11-14T02:19:51.369Z,5.20
2022-11-14T02:22:42.759Z,5.10
2022-11-14T02:25:30.797Z,5.10
2022-11-14T02:28:20.681Z,5.20
2022-11-14T02:31:08.790Z,5.30
2022-11-14T02:33:56.927Z,5.50
2022-11-14T02:36:44.957Z,5.60
2022-11-14T02:39:34.360Z,5.60
2022-11-14T02:42:22.462Z,5.60
2022-11-14T02:45:11.736Z,5.60
2022-11-14T02:47:59.752Z,5.60
2022-11-14T02:50:49.643Z,5.50
2022-11-14T02:53:37.704Z,5.50
2022-11-14T02:56:27.143Z,5.40
2022-11-14T02:59:15.393Z,5.40
2022-11-14T03:02:03.501Z,5.40
2022-11-14T03:04:51.589Z,5.40
2022-11-14T03:07:39.673Z,5.40
2022-11-14T03:10:27.789Z,5.30
2022-11-14T03:13:17.190Z,5.30
2022-11-14T03:16:09.729Z,5.30
2022-11-14T03:18:57.858Z,5.30
2022-11-14T03:21:45.919Z,5.30
2022-11-14T03:24:34.012Z,5.30
2022-11-14T03:27:22.404Z,5.30
2022-11-14T03:30:13.277Z,5.20
2022-11-14T03:33:01.312Z,5.10
2022-11-14T03:35:50.727Z,5.10
2022-11-14T03:38:39.141Z,5.10
2022-11-14T03:41:27.144Z,5.00
2022-11-14T03:44:15.184Z,4.90
2022-11-14T03:47:04.561Z,4.80
2022-11-14T03:49:52.639Z,4.90
2022-11-14T03:52:40.669Z,4.90
2022-11-14T03:55:28.874Z,5.00
2022-11-14T03:58:16.930Z,5.00
2022-11-14T04:01:05.110Z,5.10
2022-11-14T04:03:54.668Z,5.20
2022-11-14T04:06:42.786Z,5.20
2022-11-14T04:09:30.850Z,5.10
2022-11-14T04:12:18.942Z,5.00
2022-11-14T04:15:07.857Z,4.90
2022-11-14T04:17:56.030Z,4.90
2022-11-14T04:20:45.438Z,4.90
2022-11-14T04:23:33.534Z,4.80
2022-11-14T04:26:21.551Z,4.70
2022-11-14T04:29:09.652Z,4.70
2022-11-14T04:31:57.722Z,5.00
2022-11-14T04:34:45.870Z,5.10
2022-11-14T04:37:35.289Z,5.10
2022-11-14T04:40:23.354Z,5.10
2022-11-14T04:43:11.412Z,5.10
2022-11-14T04:45:59.602Z,5.20
2022-11-14T04:48:47.602Z,5.20
2022-11-14T04:51:35.605Z,5.20
2022-11-14T04:54:25.067Z,5.20
2022-11-14T04:57:13.060Z,5.20
2022-11-14T05:00:01.220Z,5.10
2022-11-14T05:02:49.389Z,5.10
2022-11-14T05:05:41.768Z,5.10
2022-11-14T05:08:30.948Z,5.10
2022-11-14T05:11:25.339Z,5.10
2022-11-14T05:14:17.104Z,5.10
2022-11-14T05:17:05.220Z,5.00
2022-11-14T05:19:53.283Z,5.00
2022-11-14T05:22:41.497Z,4.90
2022-11-14T05:25:29.534Z,5.00
2022-11-14T05:28:19.015Z,5.10
2022-11-14T05:31:09.738Z,5.00
2022-11-14T05:33:57.896Z,5.00
2022-11-14T05:36:45.899Z,4.90
2022-11-14T05:39:33.938Z,4.80
2022-11-14T05:42:21.987Z,4.70
2022-11-14T05:45:12.286Z,4.80
2022-11-14T05:48:00.299Z,4.70
2022-11-14T05:50:48.302Z,4.60
2022-11-14T05:53:36.775Z,4.50
2022-11-14T05:56:24.852Z,4.50
2022-11-14T05:59:12.964Z,4.40
2022-11-14T06:02:02.439Z,4.40
2022-11-14T06:04:50.577Z,4.50
2022-11-14T06:07:39.211Z,4.60
2022-11-14T06:10:27.651Z,4.70
2022-11-14T06:13:15.743Z,4.60
2022-11-14T06:16:05.963Z,4.50
2022-11-14T06:18:56.034Z,4.40
2022-11-14T06:21:44.049Z,4.30
2022-11-14T06:24:32.279Z,4.50
2022-11-14T06:27:20.536Z,4.50
2022-11-14T06:30:09.912Z,4.60
2022-11-14T06:32:58.991Z,4.60
2022-11-14T06:35:48.405Z,4.60
2022-11-14T06:38:37.967Z,4.50
2022-11-14T06:41:26.012Z,4.50
2022-11-14T06:44:15.042Z,4.60
2022-11-14T06:47:03.079Z,4.60
2022-11-14T06:49:51.140Z,4.50
2022-11-14T06:52:40.513Z,4.50
2022-11-14T06:55:28.837Z,4.40
2022-11-14T06:58:17.019Z,4.40
2022-11-14T07:01:06.255Z,4.30
2022-11-14T07:03:54.370Z,4.40
2022-11-14T07:06:42.400Z,4.50
2022-11-14T07:09:31.888Z,4.50
2022-11-14T07:12:19.914Z,4.40
2022-11-14T07:15:09.317Z,4.50
2022-11-14T07:17:57.396Z,4.50
2022-11-14T07:20:45.485Z,4.60
2022-11-14T07:23:34.710Z,4.50
2022-11-14T07:26:24.751Z,4.50
2022-11-14T07:29:13.142Z,4.40
2022-11-14T07:32:01.363Z,4.50
2022-11-14T07:34:49.463Z,4.50
2022-11-14T07:37:37.613Z,4.60
2022-11-14T07:40:26.781Z,4.50
2022-11-14T07:43:16.373Z,4.60
2022-11-14T07:46:06.335Z,4.70
2022-11-14T07:48:55.354Z,4.70
2022-11-14T07:51:43.584Z,4.70
2022-11-14T07:54:31.911Z,4.70
2022-11-14T07:57:20.337Z,4.80
2022-11-14T08:00:11.690Z,4.80
2022-11-14T08:02:59.815Z,4.90
2022-11-14T08:05:47.873Z,4.90
2022-11-14T08:08:36.421Z,4.90
2022-11-14T08:11:38.474Z,5.00
2022-11-14T08:14:26.866Z,5.00
2022-11-14T08:17:16.348Z,5.10
2022-11-14T08:20:05.049Z,5.10
2022-11-14T08:22:53.241Z,5.10
2022-11-14T08:25:41.753Z,5.20
2022-11-14T08:28:30.270Z,5.20
2022-11-14T08:31:18.712Z,5.30
2022-11-14T08:34:08.375Z,5.30
2022-11-14T08:36:57.822Z,5.40
2022-11-14T08:39:45.972Z,5.30
2022-11-14T08:42:34.051Z,5.40
2022-11-14T08:45:22.316Z,5.40
2022-11-14T08:48:11.398Z,5.50
2022-11-14T08:51:04.396Z,5.60
2022-11-14T08:53:52.685Z,5.60
2022-11-14T08:56:40.870Z,5.70
2022-11-14T08:59:29.053Z,5.70
2022-11-14T09:02:18.466Z,5.70
2022-11-14T09:05:07.196Z,5.80
2022-11-14T09:07:56.774Z,5.60
2022-11-14T09:10:45.288Z,5.50
2022-11-14T09:13:33.783Z,5.40
2022-11-14T09:16:21.990Z,5.50
2022-11-14T09:19:10.213Z,5.70
2022-11-14T09:21:58.427Z,5.70
2022-11-14T09:24:49.505Z,5.60
2022-11-14T09:27:37.611Z,5.70
2022-11-14T09:30:25.913Z,5.70
2022-11-14T09:33:14.192Z,5.80
2022-11-14T09:36:07.634Z,5.80
2022-11-14T09:38:55.655Z,5.90
2022-11-14T09:41:58.243Z,6.10
2022-11-14T09:44:58.462Z,6.20
2022-11-14T09:47:49.536Z,6.30
2022-11-14T09:50:43.892Z,6.40
2022-11-14T09:53:35.561Z,6.50
2022-11-14T09:56:26.522Z,6.60
2022-11-14T09:59:16.118Z,6.70
2022-11-14T10:02:14.725Z,6.70
2022-11-14T10:05:38.649Z,6.80
2022-11-14T10:08:43.920Z,6.90
2022-11-14T10:11:38.796Z,6.80
2022-11-14T10:14:52.040Z,6.90
2022-11-14T10:17:58.226Z,7.00
2022-11-14T10:20:51.561Z,7.10
2022-11-14T10:23:45.706Z,7.10
2022-11-14T10:26:37.703Z,7.20
2022-11-14T10:29:56.504Z,7.30
2022-11-14T10:33:08.441Z,7.30
2022-11-14T10:36:00.493Z,7.30
2022-11-14T10:38:53.646Z,7.30
2022-11-14T10:41:56.713Z,7.50
2022-11-14T10:44:58.615Z,7.50
2022-11-14T10:47:47.938Z,7.60
2022-11-14T10:50:41.748Z,7.70
2022-11-14T10:53:36.028Z,7.80
2022-11-14T10:56:23.966Z,8.00
2022-11-14T10:59:11.841Z,8.00
2022-11-14T11:02:01.071Z,8.10
2022-11-14T11:04:49.076Z,8.10
2022-11-14T11:08:14.997Z,8.10
2022-11-14T11:11:31.197Z,8.20
2022-11-14T11:14:19.797Z,8.20
2022-11-14T11:17:30.146Z,8.30
2022-11-14T11:20:32.053Z,8.30
2022-11-14T11:23:21.281Z,8.40
2022-11-14T11:26:16.827Z,8.40
2022-11-14T11:29:06.336Z,8.40
2022-11-14T11:31:55.336Z,8.50
2022-11-14T11:34:43.300Z,8.60
2022-11-14T11:37:34.316Z,8.60
2022-11-14T11:40:23.988Z,8.70
2022-11-14T11:46:26.933Z,8.90
2022-11-14T11:49:17.137Z,8.90
2022-11-14T11:52:06.580Z,9.10
2022-11-14T11:55:00.224Z,9.20
2022-11-14T11:57:49.738Z,9.20
2022-11-14T12:00:37.830Z,9.20
2022-11-14T12:03:26.641Z,9.30
2022-11-14T12:06:16.554Z,9.40
2022-11-14T12:09:08.681Z,9.50
2022-11-14T12:11:59.619Z,9.60
2022-11-14T12:14:56.230Z,9.70
2022-11-14T12:18:02.148Z,9.70
2022-11-14T12:20:56.575Z,9.70
2022-11-14T12:23:53.542Z,9.80
2022-11-14T12:26:51.386Z,9.80
2022-11-14T12:29:53.497Z,9.90
2022-11-14T12:32:43.548Z,10.00
2022-11-14T12:35:33.992Z,10.10
2022-11-14T12:38:22.531Z,10.10
2022-11-14T12:41:10.774Z,10.20
2022-11-14T12:44:18.442Z,10.20
2022-11-14T12:47:16.345Z,10.20
2022-11-14T12:50:07.644Z,10.20
2022-11-14T12:52:55.626Z,10.20
2022-11-14T12:56:09.795Z,10.20
2022-11-14T12:59:16.557Z,10.30
2022-11-14T13:02:22.593Z,10.30
2022-11-14T13:05:17.890Z,10.30
2022-11-14T13:08:12.488Z,10.30
2022-11-14T13:11:00.681Z,10.30
2022-11-14T13:14:14.812Z,10.30
2022-11-14T13:17:28.061Z,10.20
2022-11-14T13:20:46.561Z,10.30
2022-11-14T13:23:55.942Z,10.30
2022-11-14T13:26:45.444Z,10.40
2022-11-14T13:29:58.192Z,10.40
2022-11-14T13:33:05.021Z,10.50
2022-11-14T13:36:02.129Z,10.50
2022-11-14T13:39:13.744Z,10.60
2022-11-14T13:42:07.232Z,10.60
2022-11-14T13:45:14.012Z,10.60
2022-11-14T13:48:19.783Z,10.60
2022-11-14T13:51:41.287Z,10.70
2022-11-14T13:54:19.187Z,10.70
2022-11-14T13:57:13.275Z,10.80
2022-11-14T14:00:16.792Z,10.80
2022-11-14T14:03:12.495Z,10.80
2022-11-14T14:06:06.964Z,10.80
2022-11-14T14:09:14.031Z,10.80
2022-11-14T14:12:16.765Z,10.70
2022-11-14T14:15:09.395Z,10.70
2022-11-14T14:18:02.013Z,10.70
2022-11-14T14:20:53.439Z,10.60
2022-11-14T14:23:45.698Z,10.60
2022-11-14T14:26:38.983Z,10.60
2022-11-14T14:29:32.339Z,10.60
2022-11-14T14:32:20.967Z,10.60
2022-11-14T14:35:22.127Z,10.60
2022-11-14T14:38:13.909Z,10.60
2022-11-14T14:41:01.849Z,10.60
2022-11-14T14:43:55.234Z,10.60
2022-11-14T14:46:43.158Z,10.60
2022-11-14T14:49:32.777Z,10.60
2022-11-14T14:52:21.430Z,10.50
2022-11-14T14:55:18.837Z,10.50
2022-11-14T14:58:30.609Z,10.50
2022-11-14T15:01:21.438Z,10.60
2022-11-14T15:04:09.979Z,10.60
2022-11-14T15:06:58.486Z,10.60
2022-11-14T15:09:52.486Z,10.60
2022-11-14T15:12:41.297Z,10.60
2022-11-14T15:15:30.267Z,10.60
2022-11-14T15:18:21.242Z,10.50
2022-11-14T15:21:10.521Z,10.60
2022-11-14T15:24:01.396Z,10.50
2022-11-14T15:26:50.602Z,10.60
2022-11-14T15:29:46.224Z,10.60
2022-11-14T15:32:34.781Z,10.60
2022-11-14T15:35:29.367Z,10.50
2022-11-14T15:38:43.066Z,10.50
2022-11-14T15:41:29.797Z,10.60
2022-11-14T15:44:30.506Z,10.50
2022-11-14T15:47:23.579Z,10.50
2022-11-14T15:50:26.180Z,10.50
2022-11-14T15:53:22.758Z,10.50
2022-11-14T15:56:11.970Z,10.50
2022-11-14T15:58:59.815Z,10.50
2022-11-14T16:01:49.152Z,10.50
2022-11-14T16:04:38.941Z,10.50
2022-11-14T16:07:29.306Z,10.50
2022-11-14T16:10:19.457Z,10.50
2022-11-14T16:13:08.793Z,10.60
2022-11-14T16:15:56.859Z,10.60
2022-11-14T16:18:44.693Z,10.60
2022-11-14T16:21:33.938Z,10.40
2022-11-14T16:24:22.503Z,10.50
2022-11-14T16:27:10.455Z,10.60
2022-11-14T16:29:59.731Z,10.50
2022-11-14T16:32:48.646Z,10.50
2022-11-14T16:35:36.681Z,10.50
2022-11-14T16:38:24.561Z,10.50
2022-11-14T16:41:14.306Z,10.60
2022-11-14T16:44:02.257Z,10.60
2022-11-14T16:46:51.517Z,10.60
2022-11-14T16:49:39.668Z,10.60
2022-11-14T16:52:27.581Z,10.70
2022-11-14T16:55:15.490Z,10.60
2022-11-14T16:58:03.361Z,10.60
2022-11-14T17:00:51.214Z,10.60
2022-11-14T17:03:40.463Z,10.60
2022-11-14T17:06:29.243Z,10.60
2022-11-14T17:09:17.171Z,10.60
2022-11-14T17:12:05.547Z,10.60
2022-11-14T17:14:54.487Z,10.60
2022-11-14T17:17:46.284Z,10.60
2022-11-14T17:20:35.574Z,10.70
2022-11-14T17:23:23.425Z,10.70
2022-11-14T17:26:12.496Z,10.70
2022-11-14T17:29:00.346Z,10.70
2022-11-14T17:31:48.201Z,10.70
2022-11-14T17:34:36.175Z,10.70
2022-11-14T17:37:25.480Z,10.80
2022-11-14T17:40:15.678Z,10.70
2022-11-14T17:43:03.900Z,10.80
2022-11-14T17:45:55.248Z,10.80
2022-11-14T17:48:43.190Z,10.80
2022-11-14T17:51:31.304Z,10.80
2022-11-14T17:54:20.739Z,10.90
2022-11-14T17:57:08.617Z,10.80
2022-11-14T17:59:56.622Z,10.90
2022-11-14T18:02:44.540Z,10.90
2022-11-14T18:05:32.693Z,10.90
2022-11-14T18:08:20.537Z,10.90
2022-11-14T18:11:11.184Z,10.90
2022-11-14T18:13:59.486Z,10.90
2022-11-14T18:17:11.190Z,11.00
2022-11-14T18:19:56.559Z,10.90
2022-11-14T18:22:44.528Z,10.90
2022-11-14T18:25:32.536Z,10.90
2022-11-14T18:28:22.731Z,10.90
2022-11-14T18:31:11.514Z,10.90
2022-11-14T18:33:59.759Z,10.90
2022-11-14T18:36:47.710Z,10.90
2022-11-14T18:39:35.837Z,10.90
2022-11-14T18:42:23.785Z,10.80
2022-11-14T18:45:13.371Z,10.80
2022-11-14T18:48:01.462Z,10.80
2022-11-14T18:50:51.603Z,10.90
2022-11-14T18:53:39.706Z,10.80
2022-11-14T18:56:27.646Z,10.80
2022-11-14T18:59:15.497Z,10.80
2022-11-14T19:02:05.241Z,10.80
2022-11-14T19:04:53.367Z,10.80
2022-11-14T19:07:41.333Z,10.80
2022-11-14T19:10:29.604Z,10.80
2022-11-14T19:13:17.420Z,10.70
2022-11-14T19:16:05.977Z,10.70
2022-11-14T19:18:55.315Z,10.60
2022-11-14T19:21:43.455Z,10.60
2022-11-14T19:24:31.384Z,10.60
2022-11-14T19:27:19.598Z,10.50
2022-11-14T19:30:08.027Z,10.50
2022-11-14T19:32:55.976Z,10.50
2022-11-14T19:35:45.284Z,10.40
2022-11-14T19:38:33.307Z,10.40
2022-11-14T19:41:22.126Z,10.40
2022-11-14T19:44:10.231Z,10.40
2022-11-14T19:46:58.185Z,10.40
2022-11-14T19:49:46.147Z,10.30
2022-11-14T19:52:35.404Z,10.30
2022-11-14T19:55:23.258Z,10.30
2022-11-14T19:58:11.160Z,10.30
2022-11-14T20:01:02.599Z,10.20
2022-11-14T20:03:55.007Z,10.20
2022-11-14T20:06:43.204Z,10.20
2022-11-14T20:09:32.411Z,10.20
2022-11-14T20:12:20.617Z,10.20
2022-11-14T20:15:09.999Z,10.20
2022-11-14T20:17:58.286Z,10.20
2022-11-14T20:20:46.330Z,10.20
2022-11-14T20:23:36.515Z,10.20
2022-11-14T20:26:26.704Z,10.20
2022-11-14T20:29:14.892Z,10.30
2022-11-14T20:32:03.435Z,10.30
2022-11-14T20:34:54.354Z,10.30
2022-11-14T20:37:42.285Z,10.40
2022-11-14T20:40:30.205Z,10.30
2022-11-14T20:43:19.592Z,10.40
2022-11-14T20:46:08.761Z,10.40
2022-11-14T20:48:57.003Z,10.40
2022-11-14T20:51:44.985Z,10.40
2022-11-14T20:54:33.029Z,10.40
2022-11-14T20:57:21.962Z,10.40
2022-11-14T21:00:12.203Z,10.40
2022-11-14T21:03:00.606Z,10.40
2022-11-14T21:05:48.538Z,10.40
2022-11-14T21:08:36.935Z,10.40
2022-11-14T21:11:24.907Z,10.50
2022-11-14T21:14:13.285Z,10.50
2022-11-14T21:17:05.200Z,10.50
2022-11-14T21:19:53.074Z,10.50
2022-11-14T21:22:41.025Z,10.50
2022-11-14T21:25:28.891Z,10.50
2022-11-14T21:28:19.133Z,10.50
2022-11-14T21:31:14.069Z,10.50
2022-11-14T21:34:04.570Z,10.60
2022-11-14T21:36:52.540Z,10.50
2022-11-14T21:39:40.615Z,10.60
2022-11-14T21:42:28.528Z,10.60
2022-11-14T21:45:16.807Z,10.70
2022-11-14T21:48:05.206Z,10.60
2022-11-14T21:50:54.477Z,10.60
2022-11-14T21:53:42.780Z,10.70
2022-11-14T21:56:31.469Z,10.70
2022-11-14T21:59:21.564Z,10.70
2022-11-14T22:02:29.200Z,10.70
2022-11-14T22:05:17.101Z,10.70
2022-11-14T22:08:06.582Z,10.70
2022-11-14T22:10:56.836Z,10.80
2022-11-14T22:13:44.769Z,10.80
2022-11-14T22:16:32.720Z,10.70
2022-11-14T22:19:20.716Z,10.80
2022-11-14T22:22:08.836Z,10.80
2022-11-14T22:24:58.559Z,10.80
2022-11-14T22:27:46.548Z,10.80
2022-11-14T22:30:34.852Z,10.90
2022-11-14T22:33:22.953Z,10.90
2022-11-14T22:36:11.877Z,10.90
2022-11-14T22:38:59.760Z,10.90
2022-11-14T22:41:49.137Z,10.90
2022-11-14T22:44:36.999Z,10.90
2022-11-14T22:47:24.962Z,10.90
2022-11-14T22:50:13.372Z,10.90
2022-11-14T22:53:01.411Z,10.90
2022-11-14T22:55:49.448Z,10.90
2022-11-14T22:58:40.309Z,10.90
2022-11-14T23:01:29.695Z,10.90
2022-11-14T23:04:17.962Z,11.00
2022-11-14T23:07:05.999Z,11.00
2022-11-14T23:09:54.265Z,11.00
2022-11-14T23:12:42.152Z,11.00
2022-11-14T23:15:31.547Z,11.00
2022-11-14T23:18:19.416Z,11.00
2022-11-14T23:21:07.712Z,11.00
2022-11-14T23:23:56.087Z,11.00
2022-11-14T23:26:44.033Z,11.00
2022-11-14T23:29:32.016Z,11.10
2022-11-14T23:32:21.322Z,11.10
2022-11-14T23:35:09.424Z,11.10
2022-11-14T23:37:57.305Z,11.00
2022-11-14T23:40:45.341Z,11.10
2022-11-14T23:43:34.035Z,11.10
2022-11-14T23:46:22.276Z,11.10
2022-11-14T23:49:11.750Z,11.10
2022-11-14T23:51:59.655Z,11.10
2022-11-14T23:54:47.536Z,11.10
2022-11-14T23:57:35.552Z,11.10
